createdAt,value
2019-04-28T00:00:46.891Z,0.00
2019-04-28T00:01:46.887Z,0.00
2019-04-28T00:02:46.871Z,0.00
2019-04-28T00:03:46.860Z,0.00
2019-04-28T00:04:46.859Z,0.00
2019-04-28T00:05:46.838Z,0.00
2019-04-28T00:06:46.830Z,0.00
2019-04-28T00:07:46.816Z,0.00
2019-04-28T00:08:46.805Z,0.00
2019-04-28T00:09:46.805Z,0.00
2019-04-28T00:10:46.785Z,0.00
2019-04-28T00:11:46.776Z,0.00
2019-04-28T00:12:46.765Z,0.00
2019-04-28T00:13:46.756Z,0.00
2019-04-28T00:14:46.752Z,0.00
2019-04-28T00:15:46.732Z,0.00
2019-04-28T00:16:46.720Z,0.00
2019-04-28T00:17:46.709Z,0.00
2019-04-28T00:18:46.699Z,0.00
2019-04-28T00:19:46.700Z,0.00
2019-04-28T00:20:46.687Z,0.00
2019-04-28T00:21:46.668Z,0.00
2019-04-28T00:22:46.657Z,0.00
2019-04-28T00:23:46.644Z,0.00
2019-04-28T00:24:46.643Z,0.00
2019-04-28T00:25:46.625Z,0.00
2019-04-28T00:26:46.651Z,0.00
2019-04-28T00:27:46.602Z,0.00
2019-04-28T00:28:46.592Z,0.00
2019-04-28T00:29:46.591Z,0.00
2019-04-28T00:30:46.571Z,0.00
2019-04-28T00:31:46.560Z,0.00
2019-04-28T00:32:46.552Z,0.00
2019-04-28T00:33:46.545Z,0.00
2019-04-28T00:34:46.538Z,0.00
2019-04-28T00:35:46.518Z,0.00
2019-04-28T00:36:46.507Z,0.00
2019-04-28T00:37:46.497Z,0.00
2019-04-28T00:38:46.486Z,0.00
2019-04-28T00:39:46.500Z,0.00
2019-04-28T00:40:46.512Z,0.00
2019-04-28T00:41:46.463Z,0.00
2019-04-28T00:42:46.443Z,0.00
2019-04-28T00:43:46.436Z,0.00
2019-04-28T00:44:46.444Z,0.00
2019-04-28T00:45:46.409Z,0.00
2019-04-28T00:46:46.412Z,0.00
2019-04-28T00:47:46.388Z,0.00
2019-04-28T00:48:46.378Z,0.00
2019-04-28T00:49:46.370Z,0.00
2019-04-28T00:50:46.365Z,0.00
2019-04-28T00:51:46.354Z,0.00
2019-04-28T00:52:46.336Z,0.00
2019-04-28T00:53:46.325Z,0.00
2019-04-28T00:54:46.314Z,0.00
2019-04-28T00:55:46.315Z,0.00
2019-04-28T00:56:46.293Z,0.00
2019-04-28T00:57:46.287Z,0.00
2019-04-28T00:58:46.271Z,0.00
2019-04-28T00:59:56.675Z,0.00
2019-04-28T01:00:47.261Z,0.00
2019-04-28T01:01:46.241Z,0.00
2019-04-28T01:02:46.229Z,0.00
2019-04-28T01:03:46.224Z,0.00
2019-04-28T01:04:46.207Z,0.00
2019-04-28T01:05:46.206Z,0.00
2019-04-28T01:06:46.186Z,0.00
2019-04-28T01:07:46.176Z,0.00
2019-04-28T01:08:46.167Z,0.00
2019-04-28T01:09:46.166Z,0.00
2019-04-28T01:10:46.153Z,0.00
2019-04-28T01:11:46.133Z,0.00
2019-04-28T01:12:46.689Z,0.00
2019-04-28T01:13:46.110Z,0.00
2019-04-28T01:14:46.100Z,0.00
2019-04-28T01:15:46.112Z,0.00
2019-04-28T01:16:46.080Z,0.00
2019-04-28T01:17:46.069Z,0.00
2019-04-28T01:18:46.057Z,0.00
2019-04-28T01:19:46.047Z,0.00
2019-04-28T01:20:46.047Z,0.00
2019-04-28T01:21:46.038Z,0.00
2019-04-28T01:22:46.016Z,0.00
2019-04-28T01:23:46.007Z,0.00
2019-04-28T01:24:45.994Z,0.00
2019-04-28T01:25:45.993Z,0.00
2019-04-28T01:26:45.972Z,0.00
2019-04-28T01:27:45.963Z,0.00
2019-04-28T01:28:45.951Z,0.00
2019-04-28T01:29:45.940Z,0.00
2019-04-28T01:30:45.940Z,0.00
2019-04-28T01:31:45.919Z,0.00
2019-04-28T01:32:45.910Z,0.00
2019-04-28T01:33:45.903Z,0.00
2019-04-28T01:34:45.887Z,0.00
2019-04-28T01:35:45.887Z,0.00
2019-04-28T01:36:45.865Z,0.00
2019-04-28T01:37:45.863Z,0.00
2019-04-28T01:38:45.843Z,0.00
2019-04-28T01:39:45.839Z,0.00
2019-04-28T01:40:45.831Z,0.00
2019-04-28T01:41:45.814Z,0.00
2019-04-28T01:42:45.806Z,0.00
2019-04-28T01:43:45.790Z,0.00
2019-04-28T01:44:45.781Z,0.00
2019-04-28T01:45:45.802Z,0.00
2019-04-28T01:46:45.759Z,0.00
2019-04-28T01:47:45.747Z,0.00
2019-04-28T01:48:45.739Z,0.00
2019-04-28T01:49:45.730Z,0.00
2019-04-28T01:50:45.716Z,0.00
2019-04-28T01:51:45.724Z,0.00
2019-04-28T01:52:45.696Z,0.00
2019-04-28T01:53:45.686Z,0.00
2019-04-28T01:54:45.675Z,0.00
2019-04-28T01:55:45.663Z,0.00
2019-04-28T01:56:45.664Z,0.00
2019-04-28T01:57:45.650Z,0.00
2019-04-28T01:58:45.631Z,0.00
2019-04-28T01:59:45.620Z,0.00
2019-04-28T02:00:45.610Z,0.00
2019-04-28T02:01:45.610Z,0.00
2019-04-28T02:02:45.588Z,0.00
2019-04-28T02:03:45.587Z,0.00
2019-04-28T02:04:45.568Z,0.00
2019-04-28T02:05:45.557Z,0.00
2019-04-28T02:06:45.555Z,0.00
2019-04-28T02:07:45.535Z,0.00
2019-04-28T02:08:45.526Z,0.00
2019-04-28T02:09:45.520Z,0.00
2019-04-28T02:10:45.505Z,0.00
2019-04-28T02:11:45.505Z,0.00
2019-04-28T02:12:45.483Z,0.00
2019-04-28T02:13:45.478Z,0.00
2019-04-28T02:14:45.460Z,0.00
2019-04-28T02:15:45.454Z,0.00
2019-04-28T02:16:45.449Z,0.00
2019-04-28T02:17:45.427Z,0.00
2019-04-28T02:18:45.421Z,0.00
2019-04-28T02:19:45.411Z,0.00
2019-04-28T02:20:45.396Z,0.00
2019-04-28T02:21:45.415Z,0.00
2019-04-28T02:22:45.374Z,0.00
2019-04-28T02:23:45.371Z,0.00
2019-04-28T02:24:45.359Z,0.00
2019-04-28T02:25:45.349Z,0.00
2019-04-28T02:26:45.357Z,0.00
2019-04-28T02:27:45.334Z,0.00
2019-04-28T02:28:45.312Z,0.00
2019-04-28T02:29:45.304Z,0.00
2019-04-28T02:30:49.352Z,0.00
2019-04-28T02:31:46.305Z,0.00
2019-04-28T02:32:45.273Z,0.00
2019-04-28T02:33:45.274Z,0.00
2019-04-28T02:34:45.259Z,0.00
2019-04-28T02:35:45.239Z,0.00
2019-04-28T02:36:45.269Z,0.00
2019-04-28T02:37:45.223Z,0.00
2019-04-28T02:38:45.209Z,0.00
2019-04-28T02:39:45.204Z,0.00
2019-04-28T02:40:45.190Z,0.00
2019-04-28T02:41:45.179Z,0.00
2019-04-28T02:42:45.173Z,0.00
2019-04-28T02:43:45.153Z,0.00
2019-04-28T02:44:45.143Z,0.00
2019-04-28T02:45:45.139Z,0.00
2019-04-28T02:46:45.121Z,0.00
2019-04-28T02:47:45.128Z,0.00
2019-04-28T02:48:45.102Z,0.00
2019-04-28T02:49:45.095Z,0.00
2019-04-28T02:50:45.076Z,0.00
2019-04-28T02:51:45.080Z,0.00
2019-04-28T02:52:45.064Z,0.00
2019-04-28T02:53:45.046Z,0.00
2019-04-28T02:54:45.040Z,0.00
2019-04-28T02:55:45.027Z,0.00
2019-04-28T02:56:45.015Z,0.00
2019-04-28T02:57:45.044Z,0.00
2019-04-28T02:58:44.994Z,0.00
2019-04-28T02:59:45.106Z,0.00
2019-04-28T03:01:01.383Z,0.00
2019-04-28T03:01:45.964Z,0.00
2019-04-28T03:02:44.963Z,0.00
2019-04-28T03:03:44.949Z,0.00
2019-04-28T03:04:44.935Z,0.00
2019-04-28T03:05:44.923Z,0.00
2019-04-28T03:06:44.917Z,0.00
2019-04-28T03:07:44.912Z,0.00
2019-04-28T03:08:44.885Z,0.00
2019-04-28T03:09:44.881Z,0.00
2019-04-28T03:10:44.866Z,0.00
2019-04-28T03:11:44.854Z,0.00
2019-04-28T03:12:44.863Z,0.00
2019-04-28T03:13:44.836Z,0.00
2019-04-28T03:14:44.824Z,0.00
2019-04-28T03:15:44.819Z,0.00
2019-04-28T03:16:44.802Z,0.00
2019-04-28T03:17:44.810Z,0.00
2019-04-28T03:18:44.783Z,0.00
2019-04-28T03:19:44.774Z,0.00
2019-04-28T03:20:44.755Z,0.00
2019-04-28T03:21:44.752Z,0.00
2019-04-28T03:22:44.759Z,0.00
2019-04-28T03:23:44.726Z,0.00
2019-04-28T03:24:44.711Z,0.00
2019-04-28T03:25:44.702Z,0.00
2019-04-28T03:26:44.697Z,0.00
2019-04-28T03:27:44.711Z,0.00
2019-04-28T03:28:44.669Z,0.00
2019-04-28T03:29:44.662Z,0.00
2019-04-28T03:30:44.657Z,0.00
2019-04-28T03:32:10.063Z,0.00
2019-04-28T03:32:53.695Z,0.00
2019-04-28T03:33:49.187Z,0.00
2019-04-28T03:34:45.627Z,0.00
2019-04-28T03:35:44.595Z,0.00
2019-04-28T03:36:44.589Z,0.00
2019-04-28T03:37:44.597Z,0.00
2019-04-28T03:38:44.563Z,0.00
2019-04-28T03:39:44.555Z,0.00
2019-04-28T03:40:44.543Z,0.00
2019-04-28T03:41:44.530Z,0.00
2019-04-28T03:42:44.525Z,0.00
2019-04-28T03:43:44.523Z,0.00
2019-04-28T03:44:44.499Z,4.00
2019-04-28T03:45:44.490Z,4.00
2019-04-28T03:46:44.477Z,4.00
2019-04-28T03:47:44.466Z,4.00
2019-04-28T03:48:44.464Z,4.00
2019-04-28T03:49:44.443Z,4.00
2019-04-28T03:50:44.440Z,8.00
2019-04-28T03:51:44.429Z,8.00
2019-04-28T03:52:44.427Z,8.00
2019-04-28T03:53:44.409Z,12.00
2019-04-28T03:54:44.389Z,16.00
2019-04-28T03:55:44.382Z,16.00
2019-04-28T03:56:44.368Z,20.00
2019-04-28T03:57:44.363Z,24.00
2019-04-28T03:58:44.359Z,32.00
2019-04-28T03:59:44.335Z,36.00
2019-04-28T04:00:44.328Z,40.00
2019-04-28T04:01:55.926Z,48.00
2019-04-28T04:02:45.304Z,56.00
2019-04-28T04:03:44.311Z,64.00
2019-04-28T04:04:44.281Z,72.00
2019-04-28T04:05:44.272Z,88.00
2019-04-28T04:06:44.262Z,100.00
2019-04-28T04:07:44.249Z,112.00
2019-04-28T04:08:44.249Z,124.00
2019-04-28T04:09:44.231Z,140.00
2019-04-28T04:10:44.218Z,152.00
2019-04-28T04:11:44.210Z,168.00
2019-04-28T04:12:44.220Z,188.00
2019-04-28T04:13:44.197Z,204.00
2019-04-28T04:14:44.175Z,224.00
2019-04-28T04:15:48.654Z,244.00
2019-04-28T04:16:45.152Z,268.00
2019-04-28T04:17:44.142Z,288.00
2019-04-28T04:18:44.144Z,316.00
2019-04-28T04:19:44.122Z,344.00
2019-04-28T04:20:44.129Z,376.00
2019-04-28T04:21:44.105Z,408.00
2019-04-28T04:22:44.090Z,444.00
2019-04-28T04:23:44.092Z,480.00
2019-04-28T04:24:44.067Z,516.00
2019-04-28T04:25:44.056Z,560.00
2019-04-28T04:26:44.046Z,608.00
2019-04-28T04:27:44.047Z,676.00
2019-04-28T04:28:44.040Z,768.00
2019-04-28T04:29:44.013Z,868.00
2019-04-28T04:30:44.004Z,964.00
2019-04-28T04:31:43.993Z,1064.00
2019-04-28T04:32:43.987Z,1160.00
2019-04-28T04:33:43.985Z,1268.00
2019-04-28T04:34:43.962Z,1392.00
2019-04-28T04:35:43.953Z,1508.00
2019-04-28T04:36:43.941Z,1596.00
2019-04-28T04:37:43.928Z,1656.00
2019-04-28T04:38:46.422Z,1688.00
2019-04-28T04:39:43.907Z,1728.00
2019-04-28T04:40:43.896Z,1796.00
2019-04-28T04:41:44.042Z,1944.00
2019-04-28T04:42:43.874Z,2200.00
2019-04-28T04:43:43.871Z,2496.00
2019-04-28T04:44:43.856Z,2744.00
2019-04-28T04:45:43.843Z,2924.00
2019-04-28T04:46:43.843Z,3048.00
2019-04-28T04:47:43.820Z,3112.00
2019-04-28T04:48:43.816Z,3144.00
2019-04-28T04:49:43.810Z,3168.00
2019-04-28T04:50:43.789Z,3224.00
2019-04-28T04:51:44.108Z,3264.00
2019-04-28T04:52:43.781Z,3264.00
2019-04-28T04:53:43.755Z,3236.00
2019-04-28T04:54:43.754Z,3212.00
2019-04-28T04:55:43.733Z,3168.00
2019-04-28T04:56:43.723Z,3080.00
2019-04-28T04:57:43.720Z,3020.00
2019-04-28T04:58:43.704Z,3012.00
2019-04-28T04:59:43.701Z,3044.00
2019-04-28T05:00:43.680Z,3100.00
2019-04-28T05:01:43.671Z,3204.00
2019-04-28T05:02:51.206Z,3308.00
2019-04-28T05:03:44.652Z,3340.00
2019-04-28T05:04:43.646Z,3280.00
2019-04-28T05:05:43.627Z,3204.00
2019-04-28T05:06:43.616Z,3164.00
2019-04-28T05:07:43.611Z,3152.00
2019-04-28T05:08:43.595Z,3180.00
2019-04-28T05:09:43.604Z,3240.00
2019-04-28T05:10:43.574Z,3332.00
2019-04-28T05:11:43.562Z,3432.00
2019-04-28T05:12:43.552Z,3540.00
2019-04-28T05:13:43.542Z,3660.00
2019-04-28T05:14:43.541Z,3848.00
2019-04-28T05:15:43.533Z,4088.00
2019-04-28T05:16:43.511Z,4356.00
2019-04-28T05:17:43.499Z,4648.00
2019-04-28T05:18:43.493Z,4920.00
2019-04-28T05:19:43.490Z,5168.00
2019-04-28T05:20:43.466Z,5340.00
2019-04-28T05:21:43.466Z,5448.00
2019-04-28T05:22:43.446Z,5516.00
2019-04-28T05:23:43.436Z,5568.00
2019-04-28T05:24:46.349Z,5636.00
2019-04-28T05:25:44.413Z,5560.00
2019-04-28T05:26:47.854Z,5356.00
2019-04-28T05:27:44.398Z,5108.00
2019-04-28T05:28:50.539Z,4956.00
2019-04-28T05:29:44.380Z,4804.00
2019-04-28T05:30:43.363Z,4680.00
2019-04-28T05:31:43.350Z,4540.00
2019-04-28T05:32:49.560Z,4420.00
2019-04-28T05:33:44.333Z,4436.00
2019-04-28T05:34:46.677Z,4608.00
2019-04-28T05:35:43.311Z,4852.00
2019-04-28T05:36:44.707Z,5064.00
2019-04-28T05:37:43.287Z,5216.00
2019-04-28T05:38:43.275Z,5348.00
2019-04-28T05:39:43.284Z,5416.00
2019-04-28T05:40:43.253Z,5376.00
2019-04-28T05:41:43.243Z,5260.00
2019-04-28T05:42:43.231Z,5124.00
2019-04-28T05:43:43.222Z,4936.00
2019-04-28T05:44:43.234Z,4560.00
2019-04-28T05:45:43.213Z,4140.00
2019-04-28T05:46:43.189Z,3856.00
2019-04-28T05:47:43.181Z,3684.00
2019-04-28T05:48:43.169Z,3596.00
2019-04-28T05:49:43.157Z,3556.00
2019-04-28T05:50:43.156Z,3564.00
2019-04-28T05:51:43.147Z,3508.00
2019-04-28T05:52:43.129Z,3280.00
2019-04-28T05:53:43.114Z,3084.00
2019-04-28T05:54:43.104Z,3092.00
2019-04-28T05:55:43.102Z,3288.00
2019-04-28T05:56:43.083Z,3520.00
2019-04-28T05:57:43.081Z,3612.00
2019-04-28T05:58:43.061Z,3660.00
2019-04-28T05:59:43.050Z,4012.00
2019-04-28T06:00:43.050Z,4456.00
2019-04-28T06:01:43.030Z,4688.00
2019-04-28T06:02:55.475Z,4732.00
2019-04-28T06:03:44.017Z,4652.00
2019-04-28T06:04:42.997Z,4456.00
2019-04-28T06:05:43.009Z,4484.00
2019-04-28T06:06:42.977Z,4784.00
2019-04-28T06:07:42.965Z,5292.00
2019-04-28T06:08:42.968Z,5840.00
2019-04-28T06:09:42.943Z,6040.00
2019-04-28T06:10:42.942Z,6136.00
2019-04-28T06:11:42.922Z,6212.00
2019-04-28T06:12:42.912Z,6232.00
2019-04-28T06:13:42.905Z,6304.00
2019-04-28T06:14:42.895Z,6416.00
2019-04-28T06:15:42.892Z,6520.00
2019-04-28T06:16:42.871Z,6432.00
2019-04-28T06:17:42.860Z,6196.00
2019-04-28T06:18:42.849Z,5876.00
2019-04-28T06:19:42.836Z,5716.00
2019-04-28T06:20:42.846Z,5892.00
2019-04-28T06:21:42.866Z,6248.00
2019-04-28T06:22:42.812Z,6304.00
2019-04-28T06:23:42.796Z,6084.00
2019-04-28T06:24:42.783Z,5700.00
2019-04-28T06:25:42.783Z,5380.00
2019-04-28T06:26:42.762Z,5076.00
2019-04-28T06:27:42.756Z,4864.00
2019-04-28T06:28:42.744Z,4792.00
2019-04-28T06:29:42.731Z,4800.00
2019-04-28T06:30:42.730Z,4960.00
2019-04-28T06:31:42.708Z,5404.00
2019-04-28T06:32:42.698Z,6152.00
2019-04-28T06:33:44.528Z,7064.00
2019-04-28T06:34:42.683Z,8192.00
2019-04-28T06:35:42.676Z,9164.00
2019-04-28T06:36:42.657Z,10488.00
2019-04-28T06:37:42.645Z,12176.00
2019-04-28T06:38:42.634Z,13780.00
2019-04-28T06:39:42.624Z,15008.00
2019-04-28T06:40:42.636Z,15060.00
2019-04-28T06:41:42.604Z,14144.00
2019-04-28T06:42:42.590Z,13868.00
2019-04-28T06:43:42.580Z,14480.00
2019-04-28T06:44:42.571Z,15336.00
2019-04-28T06:45:42.559Z,15832.00
2019-04-28T06:46:42.572Z,15692.00
2019-04-28T06:47:42.536Z,15092.00
2019-04-28T06:48:42.526Z,13752.00
2019-04-28T06:49:42.513Z,12020.00
2019-04-28T06:50:42.504Z,10896.00
2019-04-28T06:51:42.504Z,9520.00
2019-04-28T06:52:42.489Z,8648.00
2019-04-28T06:53:42.477Z,8300.00
2019-04-28T06:54:42.465Z,7744.00
2019-04-28T06:55:42.449Z,8560.00
2019-04-28T06:56:42.449Z,11180.00
2019-04-28T06:57:42.428Z,15100.00
2019-04-28T06:58:42.416Z,19712.00
2019-04-28T06:59:42.406Z,19904.00
2019-04-28T07:00:42.399Z,18464.00
2019-04-28T07:01:42.394Z,18176.00
2019-04-28T07:02:42.373Z,16044.00
2019-04-28T07:03:42.363Z,14824.00
2019-04-28T07:04:42.354Z,15208.00
2019-04-28T07:05:42.341Z,16028.00
2019-04-28T07:06:42.345Z,17408.00
2019-04-28T07:07:42.321Z,18432.00
2019-04-28T07:08:42.307Z,19200.00
2019-04-28T07:09:42.302Z,20416.00
2019-04-28T07:10:42.291Z,21664.00
2019-04-28T07:11:42.288Z,21664.00
2019-04-28T07:12:42.270Z,19904.00
2019-04-28T07:13:42.254Z,18848.00
2019-04-28T07:14:42.248Z,16320.00
2019-04-28T07:15:42.233Z,15624.00
2019-04-28T07:16:42.231Z,15208.00
2019-04-28T07:17:42.211Z,15344.00
2019-04-28T07:18:42.204Z,15040.00
2019-04-28T07:19:42.191Z,13912.00
2019-04-28T07:20:42.188Z,13376.00
2019-04-28T07:21:42.176Z,13592.00
2019-04-28T07:22:42.155Z,14180.00
2019-04-28T07:23:42.146Z,14980.00
2019-04-28T07:24:44.790Z,15296.00
2019-04-28T07:25:42.149Z,15600.00
2019-04-28T07:26:42.122Z,16104.00
2019-04-28T07:27:42.106Z,17280.00
2019-04-28T07:28:42.091Z,23456.00
2019-04-28T07:29:42.080Z,34624.00
2019-04-28T07:30:42.069Z,38112.00
2019-04-28T07:31:42.083Z,26816.00
2019-04-28T07:32:42.047Z,52672.00
2019-04-28T07:33:42.036Z,57152.00
2019-04-28T07:34:42.027Z,56768.00
2019-04-28T07:35:42.014Z,47104.00
2019-04-28T07:36:42.003Z,21984.00
2019-04-28T07:37:42.010Z,19360.00
2019-04-28T07:38:41.983Z,18624.00
2019-04-28T07:39:41.973Z,18688.00
2019-04-28T07:40:41.959Z,19104.00
2019-04-28T07:41:41.950Z,19168.00
2019-04-28T07:42:41.951Z,18912.00
2019-04-28T07:43:41.928Z,18432.00
2019-04-28T07:44:41.920Z,18176.00
2019-04-28T07:45:41.965Z,18208.00
2019-04-28T07:46:41.911Z,18272.00
2019-04-28T07:47:41.899Z,18592.00
2019-04-28T07:48:41.876Z,18688.00
2019-04-28T07:49:41.899Z,18144.00
2019-04-28T07:50:41.895Z,17312.00
2019-04-28T07:51:41.853Z,16448.00
2019-04-28T07:52:41.842Z,15644.00
2019-04-28T07:53:41.824Z,15056.00
2019-04-28T07:54:41.809Z,14396.00
2019-04-28T07:55:41.798Z,13924.00
2019-04-28T07:56:41.788Z,13624.00
2019-04-28T07:57:41.803Z,13588.00
2019-04-28T07:58:41.764Z,14152.00
2019-04-28T07:59:41.752Z,15248.00
2019-04-28T08:00:41.757Z,16800.00
2019-04-28T08:01:41.731Z,17600.00
2019-04-28T08:02:41.737Z,18112.00
2019-04-28T08:03:49.248Z,18432.00
2019-04-28T08:04:42.696Z,18560.00
2019-04-28T08:05:41.687Z,18528.00
2019-04-28T08:06:41.676Z,18720.00
2019-04-28T08:07:41.677Z,19424.00
2019-04-28T08:08:41.659Z,20064.00
2019-04-28T08:09:41.644Z,20640.00
2019-04-28T08:10:41.633Z,20992.00
2019-04-28T08:11:41.622Z,21472.00
2019-04-28T08:12:41.618Z,22528.00
2019-04-28T08:13:41.599Z,23936.00
2019-04-28T08:14:41.588Z,25536.00
2019-04-28T08:15:41.623Z,26880.00
2019-04-28T08:16:41.571Z,27648.00
2019-04-28T08:17:41.570Z,28000.00
2019-04-28T08:18:41.551Z,27648.00
2019-04-28T08:19:41.554Z,25568.00
2019-04-28T08:20:41.524Z,24576.00
2019-04-28T08:21:41.513Z,24160.00
2019-04-28T08:22:41.512Z,24192.00
2019-04-28T08:23:47.231Z,25664.00
2019-04-28T08:24:42.484Z,28096.00
2019-04-28T08:25:41.470Z,30080.00
2019-04-28T08:26:41.462Z,30976.00
2019-04-28T08:27:41.463Z,31424.00
2019-04-28T08:28:41.440Z,30144.00
2019-04-28T08:29:41.423Z,29280.00
2019-04-28T08:30:41.415Z,28672.00
2019-04-28T08:31:41.401Z,28800.00
2019-04-28T08:32:41.401Z,29440.00
2019-04-28T08:33:41.382Z,30976.00
2019-04-28T08:34:41.370Z,31872.00
2019-04-28T08:35:41.360Z,32960.00
2019-04-28T08:36:41.347Z,33632.00
2019-04-28T08:37:41.369Z,33184.00
2019-04-28T08:38:41.327Z,30208.00
2019-04-28T08:39:41.318Z,27360.00
2019-04-28T08:40:41.316Z,25472.00
2019-04-28T08:41:41.295Z,24448.00
2019-04-28T08:42:41.299Z,25024.00
2019-04-28T08:43:41.273Z,26208.00
2019-04-28T08:44:41.260Z,26304.00
2019-04-28T08:45:41.280Z,26656.00
2019-04-28T08:46:41.239Z,26176.00
2019-04-28T08:47:41.256Z,24832.00
2019-04-28T08:48:41.216Z,24512.00
2019-04-28T08:49:41.210Z,26400.00
2019-04-28T08:50:41.194Z,29504.00
2019-04-28T08:51:41.187Z,31360.00
2019-04-28T08:52:41.175Z,34592.00
2019-04-28T08:53:41.188Z,36960.00
2019-04-28T08:54:41.153Z,39360.00
2019-04-28T08:55:41.147Z,40000.00
2019-04-28T08:56:41.130Z,39008.00
2019-04-28T08:57:41.126Z,37536.00
2019-04-28T08:58:41.120Z,35712.00
2019-04-28T08:59:41.118Z,33728.00
2019-04-28T09:00:41.085Z,33952.00
2019-04-28T09:01:41.077Z,34176.00
2019-04-28T09:02:41.066Z,33024.00
2019-04-28T09:03:41.063Z,32256.00
2019-04-28T09:04:41.052Z,29888.00
2019-04-28T09:05:41.031Z,26688.00
2019-04-28T09:06:41.024Z,24352.00
2019-04-28T09:07:41.011Z,22304.00
2019-04-28T09:08:41.006Z,20128.00
2019-04-28T09:09:40.988Z,18272.00
2019-04-28T09:10:40.977Z,16576.00
2019-04-28T09:11:40.965Z,14772.00
2019-04-28T09:12:40.989Z,13424.00
2019-04-28T09:13:43.692Z,12340.00
2019-04-28T09:14:40.932Z,11316.00
2019-04-28T09:15:40.928Z,10256.00
2019-04-28T09:16:40.908Z,9308.00
2019-04-28T09:17:40.899Z,8432.00
2019-04-28T09:18:40.901Z,7672.00
2019-04-28T09:19:42.414Z,7120.00
2019-04-28T09:20:40.864Z,6824.00
2019-04-28T09:21:40.896Z,6728.00
2019-04-28T09:22:40.845Z,6848.00
2019-04-28T09:23:40.848Z,7060.00
2019-04-28T09:24:40.827Z,7184.00
2019-04-28T09:25:40.811Z,7156.00
2019-04-28T09:26:40.804Z,7120.00
2019-04-28T09:27:40.789Z,7244.00
2019-04-28T09:28:40.786Z,7404.00
2019-04-28T09:29:40.769Z,7544.00
2019-04-28T09:30:40.759Z,7620.00
2019-04-28T09:31:40.772Z,7768.00
2019-04-28T09:32:40.737Z,8012.00
2019-04-28T09:33:40.749Z,8552.00
2019-04-28T09:34:40.713Z,9664.00
2019-04-28T09:35:40.706Z,10908.00
2019-04-28T09:36:40.690Z,12632.00
2019-04-28T09:37:40.681Z,15500.00
2019-04-28T09:38:40.672Z,18688.00
2019-04-28T09:39:40.668Z,20672.00
2019-04-28T09:40:40.646Z,20128.00
2019-04-28T09:41:40.636Z,19904.00
2019-04-28T09:42:40.625Z,19616.00
2019-04-28T09:43:40.614Z,20928.00
2019-04-28T09:44:40.615Z,24160.00
2019-04-28T09:45:40.594Z,27008.00
2019-04-28T09:46:40.614Z,28096.00
2019-04-28T09:47:40.580Z,28672.00
2019-04-28T09:48:40.559Z,32480.00
2019-04-28T09:49:40.561Z,41184.00
2019-04-28T09:50:40.536Z,53184.00
2019-04-28T09:51:40.527Z,44800.00
2019-04-28T09:52:40.519Z,37152.00
2019-04-28T09:53:40.554Z,33280.00
2019-04-28T09:54:40.531Z,34080.00
2019-04-28T09:55:40.485Z,35584.00
2019-04-28T09:56:40.477Z,39040.00
2019-04-28T09:57:40.463Z,45664.00
2019-04-28T09:58:40.450Z,83712.00
2019-04-28T09:59:40.492Z,44416.00
2019-04-28T10:00:40.428Z,46208.00
2019-04-28T10:01:40.427Z,45312.00
2019-04-28T10:02:40.408Z,46720.00
2019-04-28T10:03:40.401Z,52992.00
2019-04-28T10:04:41.669Z,45216.00
2019-04-28T10:05:40.380Z,34304.00
2019-04-28T10:06:40.388Z,30944.00
2019-04-28T10:07:40.353Z,30528.00
2019-04-28T10:08:40.379Z,30816.00
2019-04-28T10:09:40.352Z,31808.00
2019-04-28T10:10:40.326Z,32000.00
2019-04-28T10:11:40.311Z,33376.00
2019-04-28T10:12:40.303Z,31488.00
2019-04-28T10:13:40.286Z,24224.00
2019-04-28T10:14:40.282Z,21664.00
2019-04-28T10:15:40.287Z,19488.00
2019-04-28T10:16:40.251Z,17184.00
2019-04-28T10:17:40.248Z,14860.00
2019-04-28T10:18:40.235Z,13160.00
2019-04-28T10:19:40.229Z,11828.00
2019-04-28T10:20:40.212Z,10648.00
2019-04-28T10:21:40.205Z,9428.00
2019-04-28T10:22:40.184Z,8648.00
2019-04-28T10:23:40.174Z,8244.00
2019-04-28T10:24:40.194Z,7708.00
2019-04-28T10:25:40.157Z,7100.00
2019-04-28T10:26:40.156Z,6308.00
2019-04-28T10:27:40.131Z,5320.00
2019-04-28T10:28:40.121Z,4520.00
2019-04-28T10:29:40.133Z,4412.00
2019-04-28T10:30:40.098Z,5004.00
2019-04-28T10:31:40.090Z,5576.00
2019-04-28T10:32:40.076Z,6256.00
2019-04-28T10:33:40.065Z,7084.00
2019-04-28T10:34:40.063Z,7488.00
2019-04-28T10:35:40.050Z,7496.00
2019-04-28T10:36:40.032Z,7364.00
2019-04-28T10:37:40.034Z,7120.00
2019-04-28T10:38:40.011Z,7108.00
2019-04-28T10:39:40.009Z,6916.00
2019-04-28T10:40:39.991Z,6968.00
2019-04-28T10:41:39.978Z,6988.00
2019-04-28T10:42:39.968Z,7024.00
2019-04-28T10:43:39.975Z,6820.00
2019-04-28T10:44:39.964Z,6592.00
2019-04-28T10:45:39.936Z,6348.00
2019-04-28T10:46:39.925Z,6072.00
2019-04-28T10:47:39.912Z,6064.00
2019-04-28T10:48:39.903Z,6172.00
2019-04-28T10:49:39.890Z,6356.00
2019-04-28T10:50:39.902Z,6672.00
2019-04-28T10:51:39.880Z,7196.00
2019-04-28T10:52:39.859Z,7752.00
2019-04-28T10:53:39.857Z,8108.00
2019-04-28T10:54:39.838Z,8896.00
2019-04-28T10:55:39.858Z,10740.00
2019-04-28T10:56:39.830Z,13268.00
2019-04-28T10:57:39.809Z,16448.00
2019-04-28T10:58:39.793Z,19392.00
2019-04-28T10:59:39.783Z,21792.00
2019-04-28T11:00:39.782Z,23200.00
2019-04-28T11:01:39.765Z,23552.00
2019-04-28T11:02:39.751Z,24064.00
2019-04-28T11:03:39.745Z,25280.00
2019-04-28T11:04:39.730Z,27264.00
2019-04-28T11:05:39.728Z,29152.00
2019-04-28T11:06:39.719Z,30400.00
2019-04-28T11:07:39.718Z,36160.00
2019-04-28T11:08:39.689Z,27648.00
2019-04-28T11:09:39.676Z,32896.00
2019-04-28T11:10:39.672Z,28448.00
2019-04-28T11:11:39.732Z,25472.00
2019-04-28T11:12:39.643Z,23104.00
2019-04-28T11:13:39.636Z,20448.00
2019-04-28T11:14:39.619Z,18304.00
2019-04-28T11:15:39.627Z,17824.00
2019-04-28T11:16:39.598Z,18144.00
2019-04-28T11:17:39.589Z,18976.00
2019-04-28T11:18:39.645Z,20000.00
2019-04-28T11:19:39.567Z,21760.00
2019-04-28T11:20:39.571Z,24288.00
2019-04-28T11:21:39.556Z,25632.00
2019-04-28T11:22:39.553Z,25056.00
2019-04-28T11:23:39.521Z,24576.00
2019-04-28T11:24:39.511Z,23296.00
2019-04-28T11:25:39.550Z,21632.00
2019-04-28T11:26:39.496Z,20224.00
2019-04-28T11:27:39.488Z,19840.00
2019-04-28T11:28:39.469Z,20384.00
2019-04-28T11:29:39.457Z,20992.00
2019-04-28T11:30:39.490Z,21568.00
2019-04-28T11:31:39.436Z,21728.00
2019-04-28T11:32:39.430Z,21792.00
2019-04-28T11:33:39.414Z,21760.00
2019-04-28T11:34:39.401Z,21888.00
2019-04-28T11:35:39.408Z,22048.00
2019-04-28T11:36:39.387Z,21920.00
2019-04-28T11:37:39.376Z,21376.00
2019-04-28T11:38:39.359Z,20736.00
2019-04-28T11:39:39.350Z,20288.00
2019-04-28T11:40:39.404Z,19616.00
2019-04-28T11:41:39.346Z,19296.00
2019-04-28T11:42:39.314Z,19424.00
2019-04-28T11:43:39.319Z,19744.00
2019-04-28T11:44:39.294Z,20256.00
2019-04-28T11:45:39.358Z,20800.00
2019-04-28T11:46:39.283Z,21280.00
2019-04-28T11:47:39.328Z,21824.00
2019-04-28T11:48:39.255Z,22720.00
2019-04-28T11:49:39.261Z,24224.00
2019-04-28T11:50:39.231Z,26432.00
2019-04-28T11:51:39.230Z,29184.00
2019-04-28T11:52:39.245Z,32576.00
2019-04-28T11:53:39.200Z,36832.00
2019-04-28T11:54:39.189Z,41056.00
2019-04-28T11:55:39.175Z,48448.00
2019-04-28T11:56:41.762Z,46816.00
2019-04-28T11:57:39.157Z,25344.00
2019-04-28T11:58:39.148Z,45120.00
2019-04-28T11:59:39.143Z,47200.00
2019-04-28T12:00:39.120Z,47520.00
2019-04-28T12:01:39.119Z,50976.00
2019-04-28T12:02:39.103Z,53856.00
2019-04-28T12:03:39.092Z,53504.00
2019-04-28T12:04:39.127Z,51616.00
2019-04-28T12:05:39.066Z,58432.00
2019-04-28T12:06:39.085Z,77120.00
2019-04-28T12:07:39.046Z,65408.00
2019-04-28T12:08:39.045Z,44960.00
2019-04-28T12:09:39.024Z,44992.00
2019-04-28T12:10:39.012Z,55392.00
2019-04-28T12:11:39.014Z,75392.00
2019-04-28T12:12:39.015Z,54400.00
2019-04-28T12:13:38.991Z,48992.00
2019-04-28T12:14:38.982Z,71968.00
2019-04-28T12:15:38.958Z,88096.00
2019-04-28T12:16:39.010Z,93568.00
2019-04-28T12:17:38.939Z,84800.00
2019-04-28T12:18:38.928Z,53024.00
2019-04-28T12:19:38.951Z,53632.00